Aérodrome :
LOGIN :

S'inscrire | Disclaimer

   EN    FR    IT 

 










Légende :    VFR   VFR Marginal   IFR   IFR Intensif   IFR Très Intensif
Visi : 
Plafond : 
>= 8 km
>= 3000ft
5 à 8 km
1000 à 3000 ft
1500m à 5 km
500 à 1000 ft
800 à 1500m
200 à 500 ft
< 800m
< 200 ft
Symboles :   Orages  Brouillard  Fortes neiges  Fortes précipitations  Vent > 20 kt
SIGMETs :   Divers  Orages  Givrage  Turbulence  Onde Orograph.  Cendres Volcan.






- Altitude de l'aérodrome : 170 ft
- Code IATA : KRP


EKKA - Karup

DERNIER METAR :
  • 210529Z AUTO 13005KT 100V160 9999 BKN005/// OVC028/// 05/04 Q1014 TEMPO 3000 -RADZ BR BKN005

METARs EXPIRÉS :
  • 210520Z AUTO 14008KT 110V170 9999 SCT005/// BKN028/// OVC034/// 05/04 Q1014
  • 210504Z AUTO 13007KT 9999 BKN006/// OVC031/// 05/04 Q1014
  • 210450Z AUTO 14008KT 9999 BKN006/// OVC018/// 05/04 Q1014
  • 210420Z AUTO 14008KT 9999 -RA BKN006/// OVC035/// 05/04 Q1014
  • 210411Z AUTO 14008KT 7000 -RA BKN006/// OVC036/// 05/04 Q1014
  • 210350Z AUTO 14008KT 9999 -RA OVC007/// 05/04 Q1014
  • 210334Z AUTO 14008KT 9999 -RA OVC008/// 05/04 Q1014
  • 210320Z AUTO 14010KT 9999 -DZ OVC009/// 05/04 Q1014
  • 210314Z AUTO 14009KT 100V160 9999 -DZ OVC009/// 05/04 Q1014
  • 210250Z AUTO 13005KT 100V170 9999 -RA BKN009/// BKN032/// BKN065/// 05/04 Q1014
  • 210239Z AUTO 12006KT 090V160 9999 -RA BKN009/// BKN066/// 05/04 Q1014

TAF TAF EKKA
Valide du 21 à 06h jusqu'au 22 à 06h UTC


210527Z 2106/2206 12008KT 9999 SCT008 BKN015
TEMPO 2106/2109 3000 -RADZ BR BKN005
BECMG 2113/2115 08006KT 7000 -RA BKN012
TEMPO 2118/2206 1800 BKN002



MET'MAP, la Météo Aéronautique d'un coup d'oeil ! - Copyright ORBIFLY Décembre 2007 - Disclaimer

ORBIFLY MET'MAP TEAM :

Programmation & Développement : Alexandra Zaïnal
Conception & Développement : Baudouin d'Aumeries
Co-Programmation & Développement : Marc-Olivier Méhu
Soutien technique & logistique : Manuel Goepfert

Contact : metmap@orbifly.com




SOURCES & CREDITS :

   NOAA